MET'MAP v2.0
soon released !

Expected late october,
this new version will be
more efficient, smarter,
and hosted on a brand new
server x3 powerfull...
...and still free !


Not compatible ?
Try the mobile version !

LOG IN : | Subscribe | Disclaimer | Who is Orbifly ? |
ICAO code :
Legend : VFR Marginal VFR IFR Intensive IFR Very Intensive IFR
Visi :
Ceiling :
>= 8 km
>= 3000ft
5 to 8 km
1000 to 3000 ft
1500m to 5 km
500 to 1000 ft
800 to 1500m
200 to 500 ft
< 800m
< 200 ft

METAR - LEAL Alicante - 27 Feb 2021 23:00 UTC - Data Source NOAA   


- Airport Elevation : 142 ft
- IATA code : ALC
- No reported NOTAMs.


LEAL - Alicante

Latest METAR recorded : 2015/08/11 08:00 LEAL 110800Z 09003KT 050V140 9999 SCT014 29/24 Q1014 NOSIG
TAF TAF LEAL
Valid from the 27 at 18:00 until the 28 at 18:00 UTC


271700Z 2718/2818 08010KT 9999 FEW020 TX16/2812Z TN11/2806Z
BECMG 2723/2802 02010KT
BECMG 2809/2811 05020KT

Source NOAA


MET'MAP, your aeronautical weather chart ! - Copyright ORBIFLY December 2007

Programming & Development : Alexandra Zaïnal
Co-Developer : Marc-Olivier Méhu
Technical & hardware support : Manuel Goepfert
Concept & Financing : Baudouin d'Aumeries